sensor_id;sensor_type;location;lat;lon;timestamp;P1;durP1;ratioP1;P2;durP2;ratioP2
20421;SDS011;10370;53.102;18.034;2022-07-29T00:00:47;7.65;;;3.63;;
20421;SDS011;10370;53.102;18.034;2022-07-29T00:06:10;6.55;;;3.70;;
20421;SDS011;10370;53.102;18.034;2022-07-29T00:11:31;6.65;;;3.75;;
20421;SDS011;10370;53.102;18.034;2022-07-29T00:16:53;7.57;;;3.70;;
20421;SDS011;10370;53.102;18.034;2022-07-29T00:22:14;10.43;;;4.07;;
20421;SDS011;10370;53.102;18.034;2022-07-29T00:27:36;8.70;;;3.88;;
20421;SDS011;10370;53.102;18.034;2022-07-29T00:32:57;11.68;;;4.78;;
20421;SDS011;10370;53.102;18.034;2022-07-29T00:38:18;7.47;;;4.78;;
20421;SDS011;10370;53.102;18.034;2022-07-29T00:43:40;9.82;;;4.78;;
20421;SDS011;10370;53.102;18.034;2022-07-29T00:49:02;8.98;;;4.93;;
20421;SDS011;10370;53.102;18.034;2022-07-29T00:54:23;7.55;;;4.78;;
20421;SDS011;10370;53.102;18.034;2022-07-29T00:59:44;12.05;;;5.50;;
20421;SDS011;10370;53.102;18.034;2022-07-29T01:05:05;10.32;;;5.93;;
20421;SDS011;10370;53.102;18.034;2022-07-29T01:10:27;14.73;;;5.93;;
20421;SDS011;10370;53.102;18.034;2022-07-29T01:15:56;15.25;;;6.18;;
20421;SDS011;10370;53.102;18.034;2022-07-29T01:27:04;7.15;;;5.53;;
20421;SDS011;10370;53.102;18.034;2022-07-29T01:32:39;9.20;;;5.50;;
20421;SDS011;10370;53.102;18.034;2022-07-29T01:38:20;6.47;;;5.47;;
20421;SDS011;10370;53.102;18.034;2022-07-29T01:43:59;10.63;;;5.60;;
20421;SDS011;10370;53.102;18.034;2022-07-29T01:49:43;9.63;;;5.93;;
20421;SDS011;10370;53.102;18.034;2022-07-29T01:55:14;6.88;;;4.97;;
20421;SDS011;10370;53.102;18.034;2022-07-29T02:00:37;10.88;;;6.22;;
20421;SDS011;10370;53.102;18.034;2022-07-29T02:05:59;13.77;;;6.50;;
20421;SDS011;10370;53.102;18.034;2022-07-29T02:11:23;11.82;;;7.20;;
20421;SDS011;10370;53.102;18.034;2022-07-29T02:16:45;12.85;;;7.65;;
20421;SDS011;10370;53.102;18.034;2022-07-29T02:22:08;9.52;;;7.22;;
20421;SDS011;10370;53.102;18.034;2022-07-29T02:27:32;11.30;;;7.63;;
20421;SDS011;10370;53.102;18.034;2022-07-29T02:32:55;17.58;;;8.75;;
20421;SDS011;10370;53.102;18.034;2022-07-29T02:38:17;12.02;;;8.02;;
20421;SDS011;10370;53.102;18.034;2022-07-29T02:44:03;11.60;;;7.43;;
20421;SDS011;10370;53.102;18.034;2022-07-29T03:00:37;9.43;;;5.30;;
20421;SDS011;10370;53.102;18.034;2022-07-29T03:06:01;9.90;;;5.20;;
20421;SDS011;10370;53.102;18.034;2022-07-29T03:11:22;7.20;;;4.88;;
20421;SDS011;10370;53.102;18.034;2022-07-29T03:17:01;9.38;;;4.97;;
20421;SDS011;10370;53.102;18.034;2022-07-29T03:22:23;6.93;;;5.20;;
20421;SDS011;10370;53.102;18.034;2022-07-29T03:27:45;6.40;;;4.68;;
20421;SDS011;10370;53.102;18.034;2022-07-29T03:33:07;8.27;;;5.25;;
20421;SDS011;10370;53.102;18.034;2022-07-29T03:38:29;7.53;;;5.13;;
20421;SDS011;10370;53.102;18.034;2022-07-29T03:43:52;6.97;;;4.55;;
20421;SDS011;10370;53.102;18.034;2022-07-29T03:49:14;8.13;;;5.10;;
20421;SDS011;10370;53.102;18.034;2022-07-29T03:54:38;6.50;;;4.75;;
20421;SDS011;10370;53.102;18.034;2022-07-29T03:59:59;10.68;;;5.55;;
20421;SDS011;10370;53.102;18.034;2022-07-29T04:05:23;8.88;;;5.15;;
20421;SDS011;10370;53.102;18.034;2022-07-29T04:10:44;8.90;;;5.10;;
20421;SDS011;10370;53.102;18.034;2022-07-29T04:16:05;8.50;;;5.40;;
20421;SDS011;10370;53.102;18.034;2022-07-29T04:21:26;7.65;;;4.85;;
20421;SDS011;10370;53.102;18.034;2022-07-29T04:26:47;6.38;;;4.90;;
20421;SDS011;10370;53.102;18.034;2022-07-29T04:32:09;6.72;;;4.40;;
20421;SDS011;10370;53.102;18.034;2022-07-29T04:37:29;9.18;;;4.78;;
20421;SDS011;10370;53.102;18.034;2022-07-29T04:42:51;7.68;;;4.25;;
20421;SDS011;10370;53.102;18.034;2022-07-29T04:48:12;10.98;;;4.13;;
20421;SDS011;10370;53.102;18.034;2022-07-29T04:53:33;6.38;;;3.67;;
20421;SDS011;10370;53.102;18.034;2022-07-29T04:58:54;5.20;;;3.15;;
20421;SDS011;10370;53.102;18.034;2022-07-29T05:04:15;8.20;;;2.90;;
20421;SDS011;10370;53.102;18.034;2022-07-29T05:09:36;4.65;;;2.30;;
20421;SDS011;10370;53.102;18.034;2022-07-29T05:14:58;6.15;;;2.30;;
20421;SDS011;10370;53.102;18.034;2022-07-29T05:20:19;3.47;;;2.15;;
20421;SDS011;10370;53.102;18.034;2022-07-29T05:25:46;5.68;;;2.03;;
20421;SDS011;10370;53.102;18.034;2022-07-29T05:31:07;3.38;;;1.65;;
20421;SDS011;10370;53.102;18.034;2022-07-29T05:36:28;3.97;;;1.70;;
20421;SDS011;10370;53.102;18.034;2022-07-29T05:41:49;6.45;;;1.55;;
20421;SDS011;10370;53.102;18.034;2022-07-29T05:47:11;3.70;;;1.55;;
20421;SDS011;10370;53.102;18.034;2022-07-29T05:52:32;3.30;;;1.40;;
20421;SDS011;10370;53.102;18.034;2022-07-29T05:57:53;4.65;;;1.55;;
20421;SDS011;10370;53.102;18.034;2022-07-29T06:03:14;1.85;;;1.30;;
20421;SDS011;10370;53.102;18.034;2022-07-29T06:08:35;5.32;;;1.73;;
20421;SDS011;10370;53.102;18.034;2022-07-29T06:13:57;3.45;;;1.60;;
20421;SDS011;10370;53.102;18.034;2022-07-29T06:19:18;2.20;;;1.30;;
20421;SDS011;10370;53.102;18.034;2022-07-29T06:24:39;2.88;;;1.75;;
20421;SDS011;10370;53.102;18.034;2022-07-29T06:36:08;3.10;;;2.08;;
20421;SDS011;10370;53.102;18.034;2022-07-29T06:41:32;2.28;;;1.90;;
20421;SDS011;10370;53.102;18.034;2022-07-29T07:03:31;4.05;;;2.10;;
20421;SDS011;10370;53.102;18.034;2022-07-29T07:20:57;5.15;;;1.92;;
20421;SDS011;10370;53.102;18.034;2022-07-29T07:26:52;4.22;;;2.03;;
20421;SDS011;10370;53.102;18.034;2022-07-29T07:32:16;4.05;;;2.00;;
20421;SDS011;10370;53.102;18.034;2022-07-29T07:37:37;2.55;;;2.03;;
20421;SDS011;10370;53.102;18.034;2022-07-29T07:43:15;4.78;;;2.40;;
20421;SDS011;10370;53.102;18.034;2022-07-29T07:48:36;5.88;;;2.70;;
20421;SDS011;10370;53.102;18.034;2022-07-29T07:59:17;3.28;;;2.00;;
20421;SDS011;10370;53.102;18.034;2022-07-29T08:17:29;3.50;;;2.00;;
20421;SDS011;10370;53.102;18.034;2022-07-29T08:28:22;4.70;;;2.20;;
20421;SDS011;10370;53.102;18.034;2022-07-29T08:33:45;3.45;;;2.20;;
20421;SDS011;10370;53.102;18.034;2022-07-29T08:39:33;3.28;;;1.90;;
20421;SDS011;10370;53.102;18.034;2022-07-29T08:45:10;5.25;;;2.38;;
20421;SDS011;10370;53.102;18.034;2022-07-29T09:59:04;7.13;;;2.40;;
20421;SDS011;10370;53.102;18.034;2022-07-29T10:11:37;6.20;;;1.90;;
20421;SDS011;10370;53.102;18.034;2022-07-29T10:18:17;6.15;;;2.00;;
20421;SDS011;10370;53.102;18.034;2022-07-29T10:53:52;4.68;;;2.20;;
20421;SDS011;10370;53.102;18.034;2022-07-29T13:31:24;8.88;;;2.00;;
20421;SDS011;10370;53.102;18.034;2022-07-29T13:36:47;5.60;;;1.60;;
20421;SDS011;10370;53.102;18.034;2022-07-29T13:47:28;10.27;;;2.22;;
20421;SDS011;10370;53.102;18.034;2022-07-29T13:58:25;7.57;;;1.73;;
20421;SDS011;10370;53.102;18.034;2022-07-29T14:03:56;12.80;;;2.13;;
20421;SDS011;10370;53.102;18.034;2022-07-29T14:09:20;6.20;;;1.75;;
20421;SDS011;10370;53.102;18.034;2022-07-29T14:14:59;5.30;;;1.90;;
20421;SDS011;10370;53.102;18.034;2022-07-29T14:20:20;3.83;;;2.15;;
20421;SDS011;10370;53.102;18.034;2022-07-29T14:26:04;3.70;;;1.60;;
20421;SDS011;10370;53.102;18.034;2022-07-29T14:31:29;8.35;;;2.00;;
20421;SDS011;10370;53.102;18.034;2022-07-29T14:36:57;5.07;;;1.80;;
20421;SDS011;10370;53.102;18.034;2022-07-29T14:42:18;6.15;;;1.88;;
20421;SDS011;10370;53.102;18.034;2022-07-29T14:47:40;8.18;;;2.13;;
20421;SDS011;10370;53.102;18.034;2022-07-29T14:53:14;7.95;;;1.83;;
20421;SDS011;10370;53.102;18.034;2022-07-29T14:58:37;3.75;;;1.95;;
20421;SDS011;10370;53.102;18.034;2022-07-29T15:03:57;5.55;;;2.00;;
20421;SDS011;10370;53.102;18.034;2022-07-29T15:09:21;3.17;;;1.88;;
20421;SDS011;10370;53.102;18.034;2022-07-29T15:14:46;3.33;;;1.90;;
20421;SDS011;10370;53.102;18.034;2022-07-29T15:31:13;2.67;;;1.75;;
20421;SDS011;10370;53.102;18.034;2022-07-29T15:36:34;4.95;;;1.88;;
20421;SDS011;10370;53.102;18.034;2022-07-29T15:42:10;5.63;;;1.90;;
20421;SDS011;10370;53.102;18.034;2022-07-29T15:47:31;6.43;;;1.92;;
20421;SDS011;10370;53.102;18.034;2022-07-29T15:52:52;4.28;;;1.90;;
20421;SDS011;10370;53.102;18.034;2022-07-29T15:58:15;10.50;;;2.45;;
20421;SDS011;10370;53.102;18.034;2022-07-29T16:03:36;9.15;;;2.25;;
20421;SDS011;10370;53.102;18.034;2022-07-29T16:09:04;6.75;;;2.10;;
20421;SDS011;10370;53.102;18.034;2022-07-29T16:14:26;7.07;;;1.95;;
20421;SDS011;10370;53.102;18.034;2022-07-29T16:25:17;6.25;;;1.80;;
20421;SDS011;10370;53.102;18.034;2022-07-29T16:30:40;10.20;;;2.28;;
20421;SDS011;10370;53.102;18.034;2022-07-29T16:36:04;16.38;;;2.17;;
20421;SDS011;10370;53.102;18.034;2022-07-29T16:41:26;3.17;;;1.75;;
20421;SDS011;10370;53.102;18.034;2022-07-29T16:46:48;3.30;;;1.77;;
20421;SDS011;10370;53.102;18.034;2022-07-29T16:52:15;5.95;;;1.63;;
20421;SDS011;10370;53.102;18.034;2022-07-29T16:57:36;7.88;;;2.00;;
20421;SDS011;10370;53.102;18.034;2022-07-29T17:02:57;2.28;;;1.50;;
20421;SDS011;10370;53.102;18.034;2022-07-29T17:08:19;6.80;;;2.10;;
20421;SDS011;10370;53.102;18.034;2022-07-29T17:13:40;5.68;;;1.80;;
20421;SDS011;10370;53.102;18.034;2022-07-29T17:19:01;14.25;;;2.30;;
20421;SDS011;10370;53.102;18.034;2022-07-29T17:24:29;4.80;;;1.80;;
20421;SDS011;10370;53.102;18.034;2022-07-29T17:29:50;4.20;;;1.65;;
20421;SDS011;10370;53.102;18.034;2022-07-29T17:35:11;5.13;;;1.60;;
20421;SDS011;10370;53.102;18.034;2022-07-29T17:40:51;5.00;;;1.45;;
20421;SDS011;10370;53.102;18.034;2022-07-29T17:46:12;3.85;;;1.70;;
20421;SDS011;10370;53.102;18.034;2022-07-29T17:51:33;3.83;;;2.00;;
20421;SDS011;10370;53.102;18.034;2022-07-29T17:56:54;5.68;;;1.85;;
20421;SDS011;10370;53.102;18.034;2022-07-29T18:02:22;17.88;;;2.25;;
20421;SDS011;10370;53.102;18.034;2022-07-29T18:07:51;6.18;;;1.52;;
20421;SDS011;10370;53.102;18.034;2022-07-29T18:13:14;5.78;;;1.75;;
20421;SDS011;10370;53.102;18.034;2022-07-29T18:18:37;7.38;;;1.95;;
20421;SDS011;10370;53.102;18.034;2022-07-29T18:24:01;5.53;;;1.48;;
20421;SDS011;10370;53.102;18.034;2022-07-29T18:29:23;6.00;;;1.60;;
20421;SDS011;10370;53.102;18.034;2022-07-29T18:34:47;6.97;;;1.60;;
20421;SDS011;10370;53.102;18.034;2022-07-29T18:40:29;5.95;;;1.60;;
20421;SDS011;10370;53.102;18.034;2022-07-29T18:45:52;3.65;;;1.50;;
20421;SDS011;10370;53.102;18.034;2022-07-29T18:51:28;5.63;;;1.70;;
20421;SDS011;10370;53.102;18.034;2022-07-29T18:56:54;5.00;;;1.63;;
20421;SDS011;10370;53.102;18.034;2022-07-29T19:02:17;6.00;;;1.60;;
20421;SDS011;10370;53.102;18.034;2022-07-29T19:07:39;8.52;;;2.10;;
20421;SDS011;10370;53.102;18.034;2022-07-29T19:13:00;8.10;;;3.35;;
20421;SDS011;10370;53.102;18.034;2022-07-29T19:18:21;20.25;;;7.53;;
20421;SDS011;10370;53.102;18.034;2022-07-29T19:23:43;7.65;;;2.33;;
20421;SDS011;10370;53.102;18.034;2022-07-29T19:29:19;7.18;;;1.90;;
20421;SDS011;10370;53.102;18.034;2022-07-29T19:34:40;11.52;;;2.53;;
20421;SDS011;10370;53.102;18.034;2022-07-29T19:40:22;7.43;;;2.55;;
20421;SDS011;10370;53.102;18.034;2022-07-29T19:45:43;8.23;;;2.85;;
20421;SDS011;10370;53.102;18.034;2022-07-29T19:51:05;6.63;;;1.60;;
20421;SDS011;10370;53.102;18.034;2022-07-29T19:56:26;6.43;;;2.70;;
20421;SDS011;10370;53.102;18.034;2022-07-29T20:01:51;7.43;;;2.17;;
20421;SDS011;10370;53.102;18.034;2022-07-29T20:07:12;10.75;;;2.33;;
20421;SDS011;10370;53.102;18.034;2022-07-29T20:12:33;6.75;;;2.40;;
20421;SDS011;10370;53.102;18.034;2022-07-29T20:17:56;10.43;;;2.88;;
20421;SDS011;10370;53.102;18.034;2022-07-29T20:23:17;7.22;;;2.40;;
20421;SDS011;10370;53.102;18.034;2022-07-29T20:28:41;6.97;;;2.50;;
20421;SDS011;10370;53.102;18.034;2022-07-29T20:34:06;3.78;;;2.20;;
20421;SDS011;10370;53.102;18.034;2022-07-29T20:39:28;4.65;;;2.75;;
20421;SDS011;10370;53.102;18.034;2022-07-29T20:44:50;7.75;;;2.50;;
20421;SDS011;10370;53.102;18.034;2022-07-29T20:50:15;9.18;;;2.42;;
20421;SDS011;10370;53.102;18.034;2022-07-29T20:55:37;5.28;;;2.22;;
20421;SDS011;10370;53.102;18.034;2022-07-29T21:00:58;6.88;;;2.20;;
20421;SDS011;10370;53.102;18.034;2022-07-29T21:06:19;9.27;;;2.30;;
20421;SDS011;10370;53.102;18.034;2022-07-29T21:11:40;5.50;;;2.13;;
20421;SDS011;10370;53.102;18.034;2022-07-29T21:17:03;6.35;;;2.65;;
20421;SDS011;10370;53.102;18.034;2022-07-29T21:22:28;6.88;;;2.30;;
20421;SDS011;10370;53.102;18.034;2022-07-29T21:27:49;5.90;;;2.10;;
20421;SDS011;10370;53.102;18.034;2022-07-29T21:33:29;27.70;;;3.92;;
20421;SDS011;10370;53.102;18.034;2022-07-29T21:38:52;4.53;;;2.08;;
20421;SDS011;10370;53.102;18.034;2022-07-29T21:44:16;15.48;;;3.92;;
20421;SDS011;10370;53.102;18.034;2022-07-29T21:49:38;2.22;;;1.70;;
20421;SDS011;10370;53.102;18.034;2022-07-29T21:54:59;7.00;;;2.60;;
20421;SDS011;10370;53.102;18.034;2022-07-29T22:00:20;11.05;;;3.33;;
20421;SDS011;10370;53.102;18.034;2022-07-29T22:05:44;6.38;;;2.53;;
20421;SDS011;10370;53.102;18.034;2022-07-29T22:11:05;8.75;;;2.03;;
20421;SDS011;10370;53.102;18.034;2022-07-29T22:16:26;8.63;;;2.22;;
20421;SDS011;10370;53.102;18.034;2022-07-29T22:21:48;5.45;;;2.05;;
20421;SDS011;10370;53.102;18.034;2022-07-29T22:27:09;8.20;;;2.58;;
20421;SDS011;10370;53.102;18.034;2022-07-29T22:32:30;5.05;;;2.45;;
20421;SDS011;10370;53.102;18.034;2022-07-29T22:37:51;7.72;;;2.50;;
20421;SDS011;10370;53.102;18.034;2022-07-29T22:43:13;8.30;;;2.90;;
20421;SDS011;10370;53.102;18.034;2022-07-29T22:48:34;9.05;;;2.78;;
20421;SDS011;10370;53.102;18.034;2022-07-29T22:53:55;6.35;;;2.70;;
20421;SDS011;10370;53.102;18.034;2022-07-29T22:59:16;7.35;;;2.38;;
20421;SDS011;10370;53.102;18.034;2022-07-29T23:04:37;5.45;;;1.90;;
20421;SDS011;10370;53.102;18.034;2022-07-29T23:09:58;7.50;;;2.50;;
20421;SDS011;10370;53.102;18.034;2022-07-29T23:15:19;6.20;;;2.80;;
20421;SDS011;10370;53.102;18.034;2022-07-29T23:20:41;5.22;;;2.45;;
20421;SDS011;10370;53.102;18.034;2022-07-29T23:26:02;6.00;;;2.10;;
20421;SDS011;10370;53.102;18.034;2022-07-29T23:31:24;8.70;;;2.60;;
20421;SDS011;10370;53.102;18.034;2022-07-29T23:36:44;5.15;;;2.30;;
20421;SDS011;10370;53.102;18.034;2022-07-29T23:42:05;6.75;;;2.83;;
20421;SDS011;10370;53.102;18.034;2022-07-29T23:47:27;8.57;;;2.40;;
20421;SDS011;10370;53.102;18.034;2022-07-29T23:52:48;6.95;;;2.55;;
20421;SDS011;10370;53.102;18.034;2022-07-29T23:58:09;6.15;;;2.20;;
